Time;durP1;ratioP1;P1;durP2;ratioP2;P2;SDS_P1;SDS_P2;PMS_P1;PMS_P2;Temp;Humidity;BMP_temperature;BMP_pressure;BME280_temperature;BME280_humidity;BME280_pressure;Samples;Min_cycle;Max_cycle;Signal;HPM_P1;HPM_P2
2023/02/14 00:00:18;;;;;;;30.70;28.48;;;;;;;;;;5138589;27;20209;-79
2023/02/14 00:02:45;;;;;;;31.23;28.92;;;;;;;;;;5137799;27;20201;-79
2023/02/14 00:05:12;;;;;;;29.23;27.27;;;;;;;;;;5138460;27;20257;-79
2023/02/14 00:07:39;;;;;;;30.23;28.08;;;;;;;;;;5137775;27;20231;-78
2023/02/14 00:10:06;;;;;;;29.70;27.60;;;;;;;;;;5137516;27;20257;-78
2023/02/14 00:12:35;;;;;;;30.75;28.55;;;;;;;;;;5136360;28;20262;-78
2023/02/14 00:17:47;;;;;;;29.58;27.42;;;;;;;;;;5137706;28;20320;-79
2023/02/14 00:20:14;;;;;;;30.50;28.30;;;;;;;;;;5137705;28;20197;-79
2023/02/14 00:22:41;;;;;;;29.58;27.65;;;;;;;;;;5136250;28;20197;-79
2023/02/14 00:25:08;;;;;;;28.88;26.95;;;;;;;;;;5134363;27;20706;-79
2023/02/14 00:27:36;;;;;;;30.00;27.95;;;;;;;;;;5136125;28;20188;-79
2023/02/14 00:30:03;;;;;;;28.80;26.58;;;;;;;;;;5136500;28;20211;-79
2023/02/14 00:32:30;;;;;;;29.98;27.73;;;;;;;;;;5136163;27;20258;-78
2023/02/14 00:34:58;;;;;;;29.45;27.35;;;;;;;;;;5139488;27;20276;-79
2023/02/14 00:37:25;;;;;;;30.35;28.25;;;;;;;;;;5140221;27;20208;-79
2023/02/14 00:39:52;;;;;;;29.63;27.70;;;;;;;;;;5140692;27;20201;-79
2023/02/14 00:42:19;;;;;;;29.45;27.42;;;;;;;;;;5140654;27;20205;-78
2023/02/14 00:44:47;;;;;;;31.25;28.95;;;;;;;;;;5140488;27;20213;-78
2023/02/14 00:47:14;;;;;;;30.10;27.98;;;;;;;;;;5140821;27;20539;-78
2023/02/14 00:49:41;;;;;;;31.52;29.17;;;;;;;;;;5140454;27;20201;-79
2023/02/14 00:52:08;;;;;;;29.48;27.58;;;;;;;;;;5140213;27;20201;-78
2023/02/14 00:54:35;;;;;;;30.95;28.73;;;;;;;;;;5141139;27;20212;-79
2023/02/14 00:57:02;;;;;;;31.42;29.25;;;;;;;;;;5140909;27;20552;-79
2023/02/14 00:59:29;;;;;;;29.77;27.77;;;;;;;;;;5141587;27;20208;-80
2023/02/14 01:01:57;;;;;;;29.58;27.10;;;;;;;;;;5140979;27;20246;-79
2023/02/14 01:04:25;;;;;;;29.08;27.08;;;;;;;;;;5140531;27;20246;-79
2023/02/14 01:06:52;;;;;;;29.25;27.20;;;;;;;;;;5139689;27;20201;-79
2023/02/14 01:09:19;;;;;;;29.17;27.13;;;;;;;;;;5140417;27;20200;-79
2023/02/14 01:11:45;;;;;;;27.90;26.10;;;;;;;;;;5140068;27;20243;-79
2023/02/14 01:14:12;;;;;;;27.58;25.77;;;;;;;;;;5140692;27;20205;-79
2023/02/14 01:16:39;;;;;;;30.02;27.90;;;;;;;;;;5140687;27;20225;-79
2023/02/14 01:19:08;;;;;;;27.48;25.70;;;;;;;;;;5140807;27;20617;-79
2023/02/14 01:21:35;;;;;;;28.15;26.17;;;;;;;;;;5140214;27;20212;-79
2023/02/14 01:24:05;;;;;;;29.90;27.80;;;;;;;;;;5140998;27;20204;-79
2023/02/14 01:26:32;;;;;;;28.23;26.27;;;;;;;;;;5139940;27;20250;-79
2023/02/14 01:28:59;;;;;;;28.67;26.88;;;;;;;;;;5140702;27;20201;-79
2023/02/14 01:31:27;;;;;;;28.27;26.40;;;;;;;;;;5139604;27;20246;-79
2023/02/14 01:33:55;;;;;;;28.75;26.77;;;;;;;;;;5140010;27;20257;-79
2023/02/14 01:36:24;;;;;;;28.33;26.30;;;;;;;;;;5140088;27;20225;-79
2023/02/14 01:38:52;;;;;;;27.88;25.88;;;;;;;;;;5140380;27;20205;-78
2023/02/14 01:41:20;;;;;;;29.48;27.17;;;;;;;;;;5139221;27;20672;-80
2023/02/14 01:43:51;;;;;;;28.60;26.55;;;;;;;;;;5140105;27;20208;-79
2023/02/14 01:46:18;;;;;;;29.65;27.52;;;;;;;;;;5138944;27;20218;-78
2023/02/14 01:48:45;;;;;;;29.42;27.42;;;;;;;;;;5139267;27;20213;-78
2023/02/14 01:51:12;;;;;;;30.70;28.60;;;;;;;;;;5139050;27;20197;-80
2023/02/14 01:53:40;;;;;;;29.90;27.90;;;;;;;;;;5139368;27;20279;-78
2023/02/14 01:56:10;;;;;;;27.65;25.85;;;;;;;;;;5139027;27;20281;-78
2023/02/14 01:58:38;;;;;;;28.02;26.30;;;;;;;;;;5139627;27;20205;-79
2023/02/14 02:01:05;;;;;;;28.63;26.83;;;;;;;;;;5140166;27;20253;-78
2023/02/14 02:03:34;;;;;;;28.08;26.08;;;;;;;;;;5139385;27;20230;-79
2023/02/14 02:06:07;;;;;;;30.05;27.98;;;;;;;;;;5138699;27;20221;-78
2023/02/14 02:08:35;;;;;;;29.35;27.45;;;;;;;;;;5139948;27;20201;-79
2023/02/14 02:11:04;;;;;;;29.25;27.25;;;;;;;;;;5139283;27;20230;-79
2023/02/14 02:13:32;;;;;;;27.85;25.88;;;;;;;;;;5138723;27;20677;-78
2023/02/14 02:16:02;;;;;;;28.25;26.23;;;;;;;;;;5138923;27;20255;-79
2023/02/14 02:18:35;;;;;;;26.48;24.50;;;;;;;;;;5139645;27;20201;-79
2023/02/14 02:21:17;;;;;;;25.98;24.27;;;;;;;;;;5138320;27;20612;-79
2023/02/14 02:24:02;;;;;;;25.13;23.50;;;;;;;;;;5136544;27;20776;-79
2023/02/14 02:26:48;;;;;;;25.27;23.58;;;;;;;;;;5138764;27;20220;-79
2023/02/14 02:29:29;;;;;;;26.10;24.30;;;;;;;;;;5139018;27;20205;-79
2023/02/14 02:32:13;;;;;;;25.23;23.42;;;;;;;;;;5120987;27;20204;-79
2023/02/14 02:34:59;;;;;;;25.35;23.75;;;;;;;;;;5138088;27;20707;-80
2023/02/14 02:37:33;;;;;;;25.95;24.05;;;;;;;;;;5138891;27;20626;-79
2023/02/14 02:40:04;;;;;;;24.05;22.60;;;;;;;;;;5139149;27;20188;-79
2023/02/14 02:42:34;;;;;;;24.55;22.95;;;;;;;;;;5137919;27;20248;-79
2023/02/14 02:45:06;;;;;;;23.55;22.02;;;;;;;;;;5138594;27;20699;-79
2023/02/14 02:47:36;;;;;;;25.23;22.95;;;;;;;;;;5137972;27;20258;-78
2023/02/14 02:53:05;;;;;;;25.60;24.00;;;;;;;;;;5137918;27;20245;-79
2023/02/14 02:58:31;;;;;;;25.30;23.63;;;;;;;;;;5138180;27;20179;-79
2023/02/14 03:00:59;;;;;;;24.52;22.83;;;;;;;;;;5138875;27;20189;-79
2023/02/14 03:06:12;;;;;;;24.42;22.73;;;;;;;;;;5137410;27;20684;-78
2023/02/14 03:08:40;;;;;;;24.85;23.15;;;;;;;;;;5138308;27;20208;-78
2023/02/14 03:11:07;;;;;;;25.15;23.50;;;;;;;;;;5138049;27;20205;-78
2023/02/14 03:13:46;;;;;;;24.50;22.77;;;;;;;;;;5137281;27;20216;-78
2023/02/14 03:16:23;;;;;;;23.23;21.60;;;;;;;;;;5137020;27;20689;-78
2023/02/14 03:21:47;;;;;;;24.10;22.40;;;;;;;;;;5136765;27;20202;-79
2023/02/14 03:24:23;;;;;;;25.38;23.65;;;;;;;;;;5137429;27;20239;-78
2023/02/14 03:26:51;;;;;;;24.92;23.20;;;;;;;;;;5136454;27;20220;-79
2023/02/14 03:29:23;;;;;;;25.63;23.83;;;;;;;;;;5137745;27;20197;-78
2023/02/14 03:31:55;;;;;;;24.20;22.55;;;;;;;;;;5137539;27;20188;-78
2023/02/14 03:34:26;;;;;;;24.80;23.20;;;;;;;;;;5139518;27;20184;-78
2023/02/14 03:36:55;;;;;;;24.05;22.60;;;;;;;;;;5140642;27;20757;-78
2023/02/14 03:39:27;;;;;;;26.02;23.90;;;;;;;;;;5140519;27;20253;-78
2023/02/14 03:41:58;;;;;;;25.88;24.05;;;;;;;;;;5136846;27;20205;-79
2023/02/14 03:44:28;;;;;;;24.40;22.77;;;;;;;;;;5137701;27;20192;-78
2023/02/14 03:46:59;;;;;;;24.42;22.73;;;;;;;;;;5136376;27;20624;-78
2023/02/14 03:49:30;;;;;;;25.23;23.67;;;;;;;;;;5136884;27;20629;-79
2023/02/14 03:51:58;;;;;;;24.02;22.63;;;;;;;;;;5135984;27;20201;-78
2023/02/14 03:54:28;;;;;;;26.27;24.50;;;;;;;;;;5136901;27;20205;-78
2023/02/14 03:56:58;;;;;;;25.23;23.70;;;;;;;;;;5136384;27;20224;-78
2023/02/14 03:59:26;;;;;;;25.30;23.80;;;;;;;;;;5137148;27;20361;-78
2023/02/14 04:01:55;;;;;;;24.95;23.35;;;;;;;;;;5135858;27;20204;-79
2023/02/14 04:04:24;;;;;;;24.92;23.23;;;;;;;;;;5136937;27;20201;-79
2023/02/14 04:06:52;;;;;;;24.77;23.13;;;;;;;;;;5135473;27;20221;-78
2023/02/14 04:09:19;;;;;;;24.40;22.92;;;;;;;;;;5136186;27;20204;-79
2023/02/14 04:11:49;;;;;;;23.02;21.70;;;;;;;;;;5136123;27;20265;-79
2023/02/14 04:14:16;;;;;;;22.85;21.45;;;;;;;;;;5136592;28;20235;-79
2023/02/14 04:19:28;;;;;;;22.27;20.90;;;;;;;;;;5136327;28;20229;-79
2023/02/14 04:21:55;;;;;;;22.95;21.52;;;;;;;;;;5136111;28;20206;-79
2023/02/14 04:24:22;;;;;;;25.00;23.40;;;;;;;;;;5136010;28;20200;-78
2023/02/14 04:27:09;;;;;;;24.00;22.30;;;;;;;;;;5135701;27;20692;-78
2023/02/14 04:29:37;;;;;;;24.05;22.45;;;;;;;;;;5136355;28;20207;-79
2023/02/14 04:32:04;;;;;;;23.38;21.98;;;;;;;;;;5135609;28;20690;-79
2023/02/14 04:34:31;;;;;;;25.40;23.80;;;;;;;;;;5136759;28;20613;-79
2023/02/14 04:36:58;;;;;;;24.10;22.60;;;;;;;;;;5136582;28;20284;-78
2023/02/14 04:39:25;;;;;;;24.38;22.70;;;;;;;;;;5136837;28;20212;-78
2023/02/14 04:41:54;;;;;;;24.88;23.40;;;;;;;;;;5135637;28;20221;-79
2023/02/14 04:44:21;;;;;;;23.52;21.92;;;;;;;;;;5136476;28;20241;-78
2023/02/14 04:46:48;;;;;;;24.65;23.05;;;;;;;;;;5135527;27;20764;-78
2023/02/14 04:49:15;;;;;;;22.92;21.52;;;;;;;;;;5136914;28;20201;-79
2023/02/14 04:51:42;;;;;;;22.92;21.52;;;;;;;;;;5135572;28;20664;-79
2023/02/14 04:54:09;;;;;;;24.33;22.63;;;;;;;;;;5136458;28;20200;-79
2023/02/14 04:56:36;;;;;;;25.50;23.90;;;;;;;;;;5135758;27;20231;-79
2023/02/14 04:59:04;;;;;;;24.60;23.10;;;;;;;;;;5136468;28;20208;-79
2023/02/14 05:01:31;;;;;;;23.83;22.33;;;;;;;;;;5135816;28;20665;-79
2023/02/14 05:03:58;;;;;;;24.73;23.02;;;;;;;;;;5136912;28;20209;-79
2023/02/14 05:06:25;;;;;;;24.35;22.70;;;;;;;;;;5137647;27;20221;-79
2023/02/14 05:08:52;;;;;;;24.67;23.15;;;;;;;;;;5138324;28;20196;-79
2023/02/14 05:11:19;;;;;;;23.73;22.02;;;;;;;;;;5138228;28;20547;-79
2023/02/14 05:13:46;;;;;;;24.75;23.17;;;;;;;;;;5138992;28;20258;-79
2023/02/14 05:16:14;;;;;;;25.25;23.45;;;;;;;;;;5138337;28;20224;-78
2023/02/14 05:18:42;;;;;;;24.02;22.40;;;;;;;;;;5137685;27;20261;-79
2023/02/14 05:21:09;;;;;;;23.90;22.40;;;;;;;;;;5141257;27;20204;-79
2023/02/14 05:23:36;;;;;;;24.90;23.23;;;;;;;;;;5141310;27;20214;-79
2023/02/14 05:26:04;;;;;;;24.42;22.83;;;;;;;;;;5141734;27;20220;-81
2023/02/14 05:28:31;;;;;;;24.17;22.67;;;;;;;;;;5141832;27;20215;-78
2023/02/14 05:30:58;;;;;;;23.77;22.27;;;;;;;;;;5141957;27;20208;-79
2023/02/14 05:33:26;;;;;;;23.65;22.20;;;;;;;;;;5140231;27;20260;-78
2023/02/14 05:35:53;;;;;;;24.35;22.83;;;;;;;;;;5141702;27;20227;-78
2023/02/14 05:38:20;;;;;;;24.00;22.35;;;;;;;;;;5141873;27;20609;-79
2023/02/14 05:40:47;;;;;;;24.95;23.23;;;;;;;;;;5141253;27;20261;-79
2023/02/14 05:43:15;;;;;;;25.25;23.15;;;;;;;;;;5141131;27;20200;-79
2023/02/14 05:45:41;;;;;;;23.23;21.75;;;;;;;;;;5141483;27;20282;-79
2023/02/14 05:48:08;;;;;;;24.25;22.77;;;;;;;;;;5141494;27;20277;-79
2023/02/14 05:50:37;;;;;;;24.85;23.25;;;;;;;;;;5141306;27;20226;-79
2023/02/14 05:53:04;;;;;;;24.05;22.60;;;;;;;;;;5141457;27;20227;-79
2023/02/14 05:55:31;;;;;;;24.92;23.33;;;;;;;;;;5140652;27;20217;-79
2023/02/14 05:57:58;;;;;;;24.58;23.08;;;;;;;;;;5141255;27;20236;-78
2023/02/14 06:00:25;;;;;;;23.60;22.20;;;;;;;;;;5141230;27;20551;-79
2023/02/14 06:02:52;;;;;;;25.35;23.48;;;;;;;;;;5140880;27;20557;-79
2023/02/14 06:05:19;;;;;;;25.55;23.85;;;;;;;;;;5141227;27;20228;-79
2023/02/14 06:07:49;;;;;;;23.60;22.10;;;;;;;;;;5140633;27;20253;-79
2023/02/14 06:10:16;;;;;;;24.90;23.20;;;;;;;;;;5141275;27;20208;-79
2023/02/14 06:12:43;;;;;;;26.40;24.55;;;;;;;;;;5140070;27;20265;-79
2023/02/14 06:15:10;;;;;;;24.67;22.83;;;;;;;;;;5140542;27;20619;-79
2023/02/14 06:17:37;;;;;;;24.30;22.70;;;;;;;;;;5140035;27;20289;-78
2023/02/14 06:20:05;;;;;;;24.73;23.23;;;;;;;;;;5140632;27;20579;-79
2023/02/14 06:22:32;;;;;;;23.00;21.50;;;;;;;;;;5140582;27;20212;-79
2023/02/14 06:25:00;;;;;;;23.05;21.48;;;;;;;;;;5140759;27;20292;-79
2023/02/14 06:27:27;;;;;;;23.40;22.00;;;;;;;;;;5140748;27;20204;-78
2023/02/14 06:29:54;;;;;;;23.58;22.00;;;;;;;;;;5139530;27;20200;-78
2023/02/14 06:32:21;;;;;;;22.77;21.38;;;;;;;;;;5139673;27;20253;-79
2023/02/14 06:34:48;;;;;;;22.70;21.40;;;;;;;;;;5141169;27;20276;-81
2023/02/14 06:37:15;;;;;;;24.73;23.15;;;;;;;;;;5141736;27;20225;-81
2023/02/14 06:39:42;;;;;;;24.52;22.98;;;;;;;;;;5141693;27;20204;-81
2023/02/14 06:42:10;;;;;;;24.52;22.92;;;;;;;;;;5141314;27;20683;-82
2023/02/14 06:44:37;;;;;;;25.17;23.48;;;;;;;;;;5140560;27;20242;-82
2023/02/14 06:47:05;;;;;;;25.55;23.25;;;;;;;;;;5140082;27;20222;-81
2023/02/14 06:49:31;;;;;;;23.80;22.30;;;;;;;;;;5140542;27;20204;-81
2023/02/14 06:51:58;;;;;;;23.17;21.75;;;;;;;;;;5141480;27;20202;-81
2023/02/14 06:54:25;;;;;;;23.60;22.08;;;;;;;;;;5141993;27;20200;-82
2023/02/14 06:56:52;;;;;;;24.15;22.60;;;;;;;;;;5141357;27;20220;-82
2023/02/14 06:59:21;;;;;;;24.55;22.95;;;;;;;;;;5141152;27;20208;-81
2023/02/14 07:01:48;;;;;;;23.23;21.83;;;;;;;;;;5140214;27;20679;-85
2023/02/14 07:04:16;;;;;;;24.95;23.17;;;;;;;;;;5141340;27;20234;-81
2023/02/14 07:06:43;;;;;;;24.88;23.30;;;;;;;;;;5140954;27;20710;-81
2023/02/14 07:09:10;;;;;;;23.45;22.00;;;;;;;;;;5141025;27;20208;-79
2023/02/14 07:11:37;;;;;;;26.40;24.48;;;;;;;;;;5139364;27;20212;-79
2023/02/14 07:14:04;;;;;;;25.77;24.15;;;;;;;;;;5141060;27;20229;-80
2023/02/14 07:16:33;;;;;;;24.52;22.83;;;;;;;;;;5141108;27;20614;-78
2023/02/14 07:19:00;;;;;;;25.42;23.75;;;;;;;;;;5137941;27;20208;-78
2023/02/14 07:21:27;;;;;;;26.25;24.25;;;;;;;;;;5138014;27;20256;-79
2023/02/14 07:23:54;;;;;;;24.85;23.05;;;;;;;;;;5138976;27;20234;-79
2023/02/14 07:26:21;;;;;;;25.67;23.67;;;;;;;;;;5139071;27;20220;-79
2023/02/14 07:28:48;;;;;;;23.92;22.40;;;;;;;;;;5140097;27;20264;-79
2023/02/14 07:31:15;;;;;;;24.67;22.98;;;;;;;;;;5139316;27;20201;-79
2023/02/14 07:33:44;;;;;;;24.65;23.15;;;;;;;;;;5138437;27;20268;-78
2023/02/14 07:36:11;;;;;;;25.20;23.50;;;;;;;;;;5137689;27;20224;-79
2023/02/14 07:38:38;;;;;;;25.23;23.63;;;;;;;;;;5138019;27;20201;-78
2023/02/14 07:41:06;;;;;;;25.10;23.40;;;;;;;;;;5138797;27;20205;-79
2023/02/14 07:43:33;;;;;;;23.65;22.35;;;;;;;;;;5137464;27;20208;-79
2023/02/14 07:46:00;;;;;;;25.13;23.25;;;;;;;;;;5138970;27;20580;-81
2023/02/14 07:48:27;;;;;;;25.17;23.33;;;;;;;;;;5137697;27;20218;-79
2023/02/14 07:50:56;;;;;;;24.48;22.98;;;;;;;;;;5136108;27;20204;-79
2023/02/14 07:53:23;;;;;;;24.35;22.85;;;;;;;;;;5135955;27;20201;-79
2023/02/14 07:55:50;;;;;;;24.08;22.67;;;;;;;;;;5136474;27;20220;-79
2023/02/14 07:58:18;;;;;;;23.73;22.13;;;;;;;;;;5138605;27;20575;-81
2023/02/14 08:00:45;;;;;;;23.48;21.98;;;;;;;;;;5139773;27;20250;-79
2023/02/14 08:03:12;;;;;;;23.38;21.48;;;;;;;;;;5142140;27;20205;-79
2023/02/14 08:05:39;;;;;;;25.20;23.55;;;;;;;;;;5139395;27;20252;-79
2023/02/14 08:08:08;;;;;;;25.63;23.92;;;;;;;;;;5139223;27;20242;-78
2023/02/14 08:10:35;;;;;;;25.23;23.52;;;;;;;;;;5139418;27;20198;-79
2023/02/14 08:13:02;;;;;;;24.58;23.00;;;;;;;;;;5138779;27;20265;-79
2023/02/14 08:18:16;;;;;;;24.73;23.08;;;;;;;;;;5139134;28;20219;-79
2023/02/14 08:20:43;;;;;;;25.55;23.90;;;;;;;;;;5137838;27;20260;-79
2023/02/14 08:23:11;;;;;;;24.50;22.90;;;;;;;;;;5136458;28;20287;-78
2023/02/14 08:25:39;;;;;;;25.55;23.88;;;;;;;;;;5135866;28;20586;-79
2023/02/14 08:28:06;;;;;;;24.35;22.85;;;;;;;;;;5136510;28;20249;-78
2023/02/14 08:30:34;;;;;;;26.20;24.50;;;;;;;;;;5137958;28;20292;-80
2023/02/14 08:33:01;;;;;;;23.92;22.40;;;;;;;;;;5137565;27;20209;-78
2023/02/14 08:35:28;;;;;;;24.60;23.10;;;;;;;;;;5135994;28;20233;-78
2023/02/14 08:37:55;;;;;;;25.70;24.00;;;;;;;;;;5136113;28;20270;-78
2023/02/14 08:40:23;;;;;;;24.77;23.17;;;;;;;;;;5136293;28;20208;-79
2023/02/14 08:42:50;;;;;;;24.20;22.55;;;;;;;;;;5135476;27;20692;-79
2023/02/14 08:45:17;;;;;;;25.00;23.25;;;;;;;;;;5136352;28;20224;-78
2023/02/14 08:47:44;;;;;;;25.40;23.60;;;;;;;;;;5137649;28;20534;-78
2023/02/14 08:50:13;;;;;;;26.52;24.58;;;;;;;;;;5137102;28;20205;-79
2023/02/14 08:52:40;;;;;;;23.85;22.17;;;;;;;;;;5136979;28;20205;-79
2023/02/14 08:55:07;;;;;;;24.15;22.45;;;;;;;;;;5137873;27;20281;-78
2023/02/14 08:57:35;;;;;;;26.38;24.35;;;;;;;;;;5141358;27;20336;-79
2023/02/14 09:00:03;;;;;;;25.10;23.45;;;;;;;;;;5141671;27;20270;-79
2023/02/14 09:02:30;;;;;;;26.67;24.57;;;;;;;;;;5140502;27;20269;-79
2023/02/14 09:04:57;;;;;;;26.15;24.08;;;;;;;;;;5140637;27;20446;-78
2023/02/14 09:07:24;;;;;;;26.77;24.65;;;;;;;;;;5140940;27;20201;-79
2023/02/14 09:09:51;;;;;;;25.52;23.73;;;;;;;;;;5141006;27;20208;-78
2023/02/14 09:12:18;;;;;;;27.27;25.20;;;;;;;;;;5140809;27;20220;-79
2023/02/14 09:14:47;;;;;;;26.98;24.90;;;;;;;;;;5140791;27;20250;-79
2023/02/14 09:17:14;;;;;;;27.02;24.98;;;;;;;;;;5140625;27;20278;-79
2023/02/14 09:19:41;;;;;;;27.02;25.08;;;;;;;;;;5141147;27;20201;-79
2023/02/14 09:22:09;;;;;;;25.58;23.67;;;;;;;;;;5139933;27;20205;-80
2023/02/14 09:24:37;;;;;;;26.98;25.00;;;;;;;;;;5140964;27;20226;-79
2023/02/14 09:27:04;;;;;;;25.70;23.75;;;;;;;;;;5139893;27;20670;-79
2023/02/14 09:29:31;;;;;;;26.88;24.80;;;;;;;;;;5140082;27;20201;-77
2023/02/14 09:32:01;;;;;;;26.48;24.58;;;;;;;;;;5138824;27;20230;-78
2023/02/14 09:34:28;;;;;;;27.25;25.25;;;;;;;;;;5141112;27;20223;-79
2023/02/14 09:39:40;;;;;;;27.40;25.53;;;;;;;;;;5137587;27;20765;-79
2023/02/14 09:42:26;;;;;;;27.65;25.65;;;;;;;;;;5138094;27;20410;-78
2023/02/14 09:44:55;;;;;;;27.70;25.60;;;;;;;;;;5138420;27;20223;-79
2023/02/14 09:47:36;;;;;;;27.88;25.92;;;;;;;;;;5138453;27;20410;-78
2023/02/14 09:50:04;;;;;;;28.83;26.08;;;;;;;;;;5137536;27;20200;-79
2023/02/14 09:52:31;;;;;;;27.83;25.73;;;;;;;;;;5137676;27;20300;-78
2023/02/14 09:55:00;;;;;;;27.60;25.60;;;;;;;;;;5140201;27;20240;-78
2023/02/14 09:57:30;;;;;;;27.20;25.20;;;;;;;;;;5137920;27;20248;-78
2023/02/14 10:00:00;;;;;;;28.15;25.83;;;;;;;;;;5138276;27;20480;-78
2023/02/14 10:02:42;;;;;;;26.23;24.10;;;;;;;;;;5137465;27;20205;-78
2023/02/14 10:05:14;;;;;;;25.98;24.05;;;;;;;;;;5135185;27;20449;-79
2023/02/14 10:07:49;;;;;;;26.75;24.75;;;;;;;;;;5138040;27;20178;-78
2023/02/14 10:10:20;;;;;;;26.10;24.13;;;;;;;;;;5119497;27;20261;-78
2023/02/14 10:12:50;;;;;;;27.13;25.15;;;;;;;;;;5137152;27;20508;-79
2023/02/14 10:15:19;;;;;;;26.73;24.83;;;;;;;;;;5136832;27;20225;-78
2023/02/14 10:17:48;;;;;;;27.03;24.97;;;;;;;;;;5137926;27;20214;-78
2023/02/14 10:20:21;;;;;;;25.48;23.67;;;;;;;;;;5137066;27;20503;-78
2023/02/14 10:22:51;;;;;;;26.07;24.17;;;;;;;;;;5136885;27;20193;-78
2023/02/14 10:25:21;;;;;;;26.20;24.30;;;;;;;;;;5136696;27;20461;-79
2023/02/14 10:27:48;;;;;;;26.20;24.40;;;;;;;;;;5137045;27;20685;-78
2023/02/14 10:30:17;;;;;;;26.90;25.10;;;;;;;;;;5137187;27;20626;-78
2023/02/14 10:32:45;;;;;;;25.53;23.83;;;;;;;;;;5136089;27;20425;-78
2023/02/14 10:35:17;;;;;;;26.40;24.60;;;;;;;;;;5136713;27;20467;-78
2023/02/14 10:37:51;;;;;;;26.97;25.10;;;;;;;;;;5135958;27;20430;-78
2023/02/14 10:40:36;;;;;;;29.77;27.67;;;;;;;;;;5137092;27;20405;-78
2023/02/14 10:43:08;;;;;;;29.17;26.70;;;;;;;;;;5135920;27;20458;-78
2023/02/14 10:45:40;;;;;;;30.07;27.50;;;;;;;;;;5136477;27;20503;-78
2023/02/14 10:48:15;;;;;;;29.60;27.10;;;;;;;;;;5136733;27;20406;-77
2023/02/14 10:50:47;;;;;;;30.20;28.10;;;;;;;;;;5137031;27;20406;-78
2023/02/14 10:53:19;;;;;;;27.23;25.33;;;;;;;;;;5136641;27;20762;-78
2023/02/14 10:55:49;;;;;;;28.90;26.80;;;;;;;;;;5136788;27;20708;-78
2023/02/14 10:58:17;;;;;;;27.60;25.70;;;;;;;;;;5136893;27;20445;-77
2023/02/14 11:00:50;;;;;;;29.23;26.83;;;;;;;;;;5136816;27;20467;-78
2023/02/14 11:03:18;;;;;;;27.10;24.90;;;;;;;;;;5135331;27;20462;-78
2023/02/14 11:05:46;;;;;;;27.80;25.80;;;;;;;;;;5135860;27;20445;-78
2023/02/14 11:08:14;;;;;;;27.00;25.30;;;;;;;;;;5136875;27;20448;-79
2023/02/14 11:10:43;;;;;;;26.43;24.63;;;;;;;;;;5136918;27;20475;-78
2023/02/14 11:13:25;;;;;;;27.23;25.37;;;;;;;;;;5135893;27;20498;-79
2023/02/14 11:15:52;;;;;;;27.17;25.27;;;;;;;;;;5136099;27;20429;-78
2023/02/14 11:18:22;;;;;;;27.20;25.30;;;;;;;;;;5135685;27;20453;-78
2023/02/14 11:20:59;;;;;;;26.97;25.17;;;;;;;;;;5136724;27;20426;-79
2023/02/14 11:23:26;;;;;;;25.43;23.73;;;;;;;;;;5135982;27;20425;-79
2023/02/14 11:25:56;;;;;;;27.83;25.93;;;;;;;;;;5136575;27;20445;-79
2023/02/14 11:28:23;;;;;;;28.70;26.67;;;;;;;;;;5136637;27;20419;-79
2023/02/14 11:30:50;;;;;;;26.87;25.17;;;;;;;;;;5136622;27;20454;-78
2023/02/14 11:33:29;;;;;;;26.07;24.33;;;;;;;;;;5135799;27;20443;-79
2023/02/14 11:35:56;;;;;;;27.20;25.40;;;;;;;;;;5136351;27;20592;-78
2023/02/14 11:38:27;;;;;;;28.07;26.07;;;;;;;;;;5135839;27;20478;-79
2023/02/14 11:40:56;;;;;;;27.87;25.90;;;;;;;;;;5136054;27;20443;-79
2023/02/14 11:43:30;;;;;;;27.23;25.43;;;;;;;;;;5135762;27;20426;-79
2023/02/14 11:46:05;;;;;;;27.63;25.67;;;;;;;;;;5136085;27;20517;-78
2023/02/14 11:48:34;;;;;;;26.90;25.10;;;;;;;;;;5135726;27;20479;-79
2023/02/14 11:51:03;;;;;;;26.77;25.17;;;;;;;;;;5136194;27;20450;-78
2023/02/14 11:53:34;;;;;;;24.70;23.10;;;;;;;;;;5135702;27;20422;-79
2023/02/14 11:56:03;;;;;;;26.33;24.63;;;;;;;;;;5136089;27;20431;-78
2023/02/14 11:58:32;;;;;;;26.70;25.00;;;;;;;;;;5117861;27;20445;-79
2023/02/14 12:01:00;;;;;;;26.43;24.60;;;;;;;;;;5136259;27;20448;-78
2023/02/14 12:03:28;;;;;;;25.37;23.70;;;;;;;;;;5135428;27;20424;-79
2023/02/14 12:05:59;;;;;;;24.10;22.60;;;;;;;;;;5135446;27;20464;-79
2023/02/14 12:08:30;;;;;;;25.50;23.90;;;;;;;;;;5135529;27;20511;-78
2023/02/14 12:11:06;;;;;;;25.13;23.43;;;;;;;;;;5135780;27;20423;-78
2023/02/14 12:13:33;;;;;;;26.40;24.80;;;;;;;;;;5134520;27;20425;-78
2023/02/14 12:16:02;;;;;;;24.70;23.17;;;;;;;;;;5135114;27;20906;-78
2023/02/14 12:18:39;;;;;;;27.17;25.27;;;;;;;;;;5135370;28;20481;-78
2023/02/14 12:21:12;;;;;;;26.00;24.40;;;;;;;;;;5134395;27;20463;-78
2023/02/14 12:23:42;;;;;;;25.70;24.07;;;;;;;;;;5134905;28;20462;-79
2023/02/14 12:26:15;;;;;;;27.33;25.43;;;;;;;;;;5135442;28;20488;-78
2023/02/14 12:28:46;;;;;;;25.50;23.90;;;;;;;;;;5135909;27;20436;-78
2023/02/14 12:31:13;;;;;;;25.80;24.20;;;;;;;;;;5138650;27;20830;-80
2023/02/14 12:33:41;;;;;;;25.53;23.87;;;;;;;;;;5139988;27;20476;-79
2023/02/14 12:36:10;;;;;;;25.77;24.17;;;;;;;;;;5140517;27;20489;-79
2023/02/14 12:38:41;;;;;;;26.63;24.93;;;;;;;;;;5141672;27;20453;-85
2023/02/14 12:41:18;;;;;;;25.50;23.93;;;;;;;;;;5136653;27;20447;-86
2023/02/14 12:43:49;;;;;;;25.60;24.10;;;;;;;;;;5122610;28;20454;-78
2023/02/14 12:46:28;;;;;;;25.27;23.87;;;;;;;;;;5118749;28;20571;-78
2023/02/14 12:49:22;;;;;;;24.60;23.20;;;;;;;;;;5119442;28;20777;-78
2023/02/14 12:51:52;;;;;;;24.73;23.33;;;;;;;;;;5094011;28;20469;-78
2023/02/14 12:54:30;;;;;;;25.17;23.63;;;;;;;;;;5119759;28;20489;-78
2023/02/14 12:57:03;;;;;;;25.40;23.63;;;;;;;;;;5118602;28;20442;-78
2023/02/14 12:59:34;;;;;;;25.03;23.63;;;;;;;;;;5119181;28;20460;-79
2023/02/14 13:02:16;;;;;;;26.00;24.50;;;;;;;;;;5118765;28;20768;-78
2023/02/14 13:04:54;;;;;;;26.40;24.80;;;;;;;;;;5119755;28;20429;-83
2023/02/14 13:07:27;;;;;;;26.13;24.63;;;;;;;;;;5127281;28;20453;-84
2023/02/14 13:09:58;;;;;;;25.03;23.60;;;;;;;;;;5126081;28;20795;-84
2023/02/14 13:12:32;;;;;;;25.43;23.93;;;;;;;;;;5125445;28;20477;-84
2023/02/14 13:15:05;;;;;;;26.07;24.57;;;;;;;;;;5126732;28;20521;-84
2023/02/14 13:17:37;;;;;;;26.03;24.53;;;;;;;;;;5125846;28;20473;-80
2023/02/14 13:20:13;;;;;;;25.67;24.17;;;;;;;;;;5123148;28;20620;-87
2023/02/14 13:22:40;;;;;;;25.43;23.90;;;;;;;;;;5117831;28;20408;-78
2023/02/14 13:25:18;;;;;;;23.80;22.40;;;;;;;;;;5116786;28;20601;-78
2023/02/14 13:27:47;;;;;;;26.70;25.00;;;;;;;;;;5116952;28;20690;-77
2023/02/14 13:30:21;;;;;;;25.63;24.03;;;;;;;;;;5120850;28;20970;-78
2023/02/14 13:32:49;;;;;;;25.83;24.00;;;;;;;;;;5117814;28;20469;-78
2023/02/14 13:35:17;;;;;;;25.00;23.50;;;;;;;;;;5116695;28;20490;-77
2023/02/14 13:37:47;;;;;;;24.90;23.40;;;;;;;;;;5117157;28;20480;-77
2023/02/14 13:40:18;;;;;;;25.27;23.67;;;;;;;;;;5116372;28;20461;-77
2023/02/14 13:42:52;;;;;;;25.17;23.63;;;;;;;;;;5116297;28;20462;-79
2023/02/14 13:45:37;;;;;;;24.77;23.27;;;;;;;;;;5116855;28;20436;-78
2023/02/14 13:48:05;;;;;;;24.90;23.50;;;;;;;;;;5115957;28;20438;-78
2023/02/14 13:50:33;;;;;;;26.37;24.77;;;;;;;;;;5117098;28;20458;-77
2023/02/14 13:53:00;;;;;;;26.47;24.87;;;;;;;;;;5115875;28;20442;-77
2023/02/14 13:55:30;;;;;;;26.67;24.67;;;;;;;;;;5116672;28;20498;-77
2023/02/14 13:58:03;;;;;;;27.03;25.33;;;;;;;;;;5120587;28;20457;-78
2023/02/14 14:00:40;;;;;;;25.43;23.83;;;;;;;;;;5119746;28;20500;-77
2023/02/14 14:03:08;;;;;;;25.90;24.40;;;;;;;;;;5116704;28;20427;-79
2023/02/14 14:05:48;;;;;;;26.73;24.73;;;;;;;;;;5117585;28;20502;-78
2023/02/14 14:08:34;;;;;;;26.23;24.70;;;;;;;;;;5117832;28;20475;-79
2023/02/14 14:11:02;;;;;;;25.97;24.47;;;;;;;;;;5117238;28;20430;-78
2023/02/14 14:13:47;;;;;;;25.40;23.90;;;;;;;;;;5116214;28;20457;-79
2023/02/14 14:16:26;;;;;;;26.80;25.00;;;;;;;;;;5116733;28;20461;-78
2023/02/14 14:18:54;;;;;;;26.13;24.53;;;;;;;;;;5115114;28;20531;-79
2023/02/14 14:21:24;;;;;;;25.67;24.07;;;;;;;;;;5114966;28;20975;-79
2023/02/14 14:24:03;;;;;;;24.80;23.30;;;;;;;;;;5116899;28;20420;-78
2023/02/14 14:26:35;;;;;;;24.97;23.37;;;;;;;;;;5116751;28;20445;-78
2023/02/14 14:29:02;;;;;;;24.10;22.47;;;;;;;;;;5116940;28;20407;-78
2023/02/14 14:31:30;;;;;;;24.37;22.77;;;;;;;;;;5116520;28;20424;-78
2023/02/14 14:33:58;;;;;;;25.77;24.07;;;;;;;;;;5127445;27;20486;-78
2023/02/14 14:36:25;;;;;;;26.73;25.03;;;;;;;;;;5137267;27;20437;-78
2023/02/14 14:38:53;;;;;;;25.87;24.27;;;;;;;;;;5136811;27;20485;-78
2023/02/14 14:41:20;;;;;;;25.80;24.20;;;;;;;;;;5136642;27;20445;-79
2023/02/14 14:43:47;;;;;;;27.13;25.43;;;;;;;;;;5137127;27;20458;-78
2023/02/14 14:46:15;;;;;;;26.13;24.13;;;;;;;;;;5136880;27;20471;-78
2023/02/14 14:48:45;;;;;;;25.37;23.77;;;;;;;;;;5136408;27;20424;-79
2023/02/14 14:51:19;;;;;;;25.80;24.20;;;;;;;;;;5136763;27;20755;-79